sensor_id;sensor_type;location;lat;lon;timestamp;temperature;humidity
42031;DHT22;27709;52.036;5.906;2022-07-10T00:03:14;16.30;92.40
42031;DHT22;27709;52.036;5.906;2022-07-10T00:05:40;16.30;92.60
42031;DHT22;27709;52.036;5.906;2022-07-10T00:08:06;16.30;92.50
42031;DHT22;27709;52.036;5.906;2022-07-10T00:10:31;16.30;92.60
42031;DHT22;27709;52.036;5.906;2022-07-10T00:12:59;16.30;93.00
42031;DHT22;27709;52.036;5.906;2022-07-10T00:15:25;16.30;92.70
42031;DHT22;27709;52.036;5.906;2022-07-10T00:17:50;16.30;92.70
42031;DHT22;27709;52.036;5.906;2022-07-10T00:20:16;16.40;92.80
42031;DHT22;27709;52.036;5.906;2022-07-10T00:22:43;16.40;92.80
42031;DHT22;27709;52.036;5.906;2022-07-10T00:25:13;16.30;92.90
42031;DHT22;27709;52.036;5.906;2022-07-10T00:27:41;16.30;92.90
42031;DHT22;27709;52.036;5.906;2022-07-10T00:30:27;16.20;93.00
42031;DHT22;27709;52.036;5.906;2022-07-10T00:32:53;16.20;93.20
42031;DHT22;27709;52.036;5.906;2022-07-10T00:35:20;16.20;93.30
42031;DHT22;27709;52.036;5.906;2022-07-10T00:37:46;16.20;93.30
42031;DHT22;27709;52.036;5.906;2022-07-10T00:40:11;16.20;93.30
42031;DHT22;27709;52.036;5.906;2022-07-10T00:42:37;16.10;93.40
42031;DHT22;27709;52.036;5.906;2022-07-10T00:45:03;16.10;93.50
42031;DHT22;27709;52.036;5.906;2022-07-10T00:47:29;16.00;93.60
42031;DHT22;27709;52.036;5.906;2022-07-10T00:49:55;16.00;93.70
42031;DHT22;27709;52.036;5.906;2022-07-10T00:52:25;16.00;93.80
42031;DHT22;27709;52.036;5.906;2022-07-10T00:54:52;16.00;93.90
42031;DHT22;27709;52.036;5.906;2022-07-10T00:57:19;16.00;94.00
42031;DHT22;27709;52.036;5.906;2022-07-10T00:59:46;16.00;94.00
42031;DHT22;27709;52.036;5.906;2022-07-10T01:02:14;16.00;94.10
42031;DHT22;27709;52.036;5.906;2022-07-10T01:04:47;15.90;94.10
42031;DHT22;27709;52.036;5.906;2022-07-10T01:07:49;16.00;94.20
42031;DHT22;27709;52.036;5.906;2022-07-10T01:10:47;16.00;94.30
42031;DHT22;27709;52.036;5.906;2022-07-10T01:13:16;16.00;94.40
42031;DHT22;27709;52.036;5.906;2022-07-10T01:15:53;16.00;94.40
42031;DHT22;27709;52.036;5.906;2022-07-10T01:31:25;15.70;94.70
42031;DHT22;27709;52.036;5.906;2022-07-10T01:33:51;15.60;94.80
42031;DHT22;27709;52.036;5.906;2022-07-10T01:36:19;15.60;94.80
42031;DHT22;27709;52.036;5.906;2022-07-10T01:38:47;15.50;94.80
42031;DHT22;27709;52.036;5.906;2022-07-10T01:41:13;15.40;95.00
42031;DHT22;27709;52.036;5.906;2022-07-10T01:43:39;15.30;95.00
42031;DHT22;27709;52.036;5.906;2022-07-10T01:46:08;15.20;95.30
42031;DHT22;27709;52.036;5.906;2022-07-10T01:48:38;15.10;95.30
42031;DHT22;27709;52.036;5.906;2022-07-10T01:51:05;15.00;95.50
42031;DHT22;27709;52.036;5.906;2022-07-10T01:53:32;15.00;95.60
42031;DHT22;27709;52.036;5.906;2022-07-10T01:55:59;15.10;95.60
42031;DHT22;27709;52.036;5.906;2022-07-10T01:58:26;15.00;95.60
42031;DHT22;27709;52.036;5.906;2022-07-10T02:00:51;15.00;95.70
42031;DHT22;27709;52.036;5.906;2022-07-10T02:03:17;15.00;95.70
42031;DHT22;27709;52.036;5.906;2022-07-10T02:06:00;15.00;95.80
42031;DHT22;27709;52.036;5.906;2022-07-10T02:08:26;15.10;95.90
42031;DHT22;27709;52.036;5.906;2022-07-10T02:10:52;15.10;95.80
42031;DHT22;27709;52.036;5.906;2022-07-10T02:13:17;15.10;95.80
42031;DHT22;27709;52.036;5.906;2022-07-10T02:15:46;15.00;95.90
42031;DHT22;27709;52.036;5.906;2022-07-10T02:18:12;15.10;95.90
42031;DHT22;27709;52.036;5.906;2022-07-10T02:20:38;15.10;95.80
42031;DHT22;27709;52.036;5.906;2022-07-10T02:23:04;15.10;95.90
42031;DHT22;27709;52.036;5.906;2022-07-10T02:25:29;15.30;95.90
42031;DHT22;27709;52.036;5.906;2022-07-10T02:27:55;15.20;95.70
42031;DHT22;27709;52.036;5.906;2022-07-10T02:30:20;15.20;95.70
42031;DHT22;27709;52.036;5.906;2022-07-10T02:32:46;15.10;95.70
42031;DHT22;27709;52.036;5.906;2022-07-10T02:35:11;15.10;95.70
42031;DHT22;27709;52.036;5.906;2022-07-10T02:37:37;15.10;95.70
42031;DHT22;27709;52.036;5.906;2022-07-10T02:40:03;15.10;95.70
42031;DHT22;27709;52.036;5.906;2022-07-10T02:42:28;15.00;95.70
42031;DHT22;27709;52.036;5.906;2022-07-10T02:44:54;15.00;95.80
42031;DHT22;27709;52.036;5.906;2022-07-10T02:47:20;14.90;95.90
42031;DHT22;27709;52.036;5.906;2022-07-10T02:49:45;15.00;95.90
42031;DHT22;27709;52.036;5.906;2022-07-10T02:52:12;15.00;95.90
42031;DHT22;27709;52.036;5.906;2022-07-10T02:54:38;14.90;96.00
42031;DHT22;27709;52.036;5.906;2022-07-10T02:57:18;14.90;96.00
42031;DHT22;27709;52.036;5.906;2022-07-10T02:59:44;15.00;96.00
42031;DHT22;27709;52.036;5.906;2022-07-10T03:02:09;14.90;96.10
42031;DHT22;27709;52.036;5.906;2022-07-10T03:04:35;15.00;96.10
42031;DHT22;27709;52.036;5.906;2022-07-10T03:07:01;14.90;96.10
42031;DHT22;27709;52.036;5.906;2022-07-10T03:09:34;14.90;96.10
42031;DHT22;27709;52.036;5.906;2022-07-10T03:12:02;15.00;96.10
42031;DHT22;27709;52.036;5.906;2022-07-10T03:14:29;14.90;96.10
42031;DHT22;27709;52.036;5.906;2022-07-10T03:16:57;15.00;96.20
42031;DHT22;27709;52.036;5.906;2022-07-10T03:19:23;15.00;96.20
42031;DHT22;27709;52.036;5.906;2022-07-10T03:21:49;15.00;96.20
42031;DHT22;27709;52.036;5.906;2022-07-10T03:24:16;15.00;96.20
42031;DHT22;27709;52.036;5.906;2022-07-10T03:26:42;15.10;96.30
42031;DHT22;27709;52.036;5.906;2022-07-10T03:29:08;15.10;96.20
42031;DHT22;27709;52.036;5.906;2022-07-10T03:31:41;15.10;96.20
42031;DHT22;27709;52.036;5.906;2022-07-10T03:34:32;15.20;96.20
42031;DHT22;27709;52.036;5.906;2022-07-10T03:37:02;15.20;96.10
42031;DHT22;27709;52.036;5.906;2022-07-10T03:40:11;15.20;96.10
42031;DHT22;27709;52.036;5.906;2022-07-10T03:43:24;15.30;96.10
42031;DHT22;27709;52.036;5.906;2022-07-10T03:45:58;15.30;96.20
42031;DHT22;27709;52.036;5.906;2022-07-10T03:48:45;15.30;96.30
42031;DHT22;27709;52.036;5.906;2022-07-10T03:51:11;15.30;96.20
42031;DHT22;27709;52.036;5.906;2022-07-10T03:53:36;15.30;96.30
42031;DHT22;27709;52.036;5.906;2022-07-10T03:56:03;15.30;96.30
42031;DHT22;27709;52.036;5.906;2022-07-10T03:58:30;15.40;96.40
42031;DHT22;27709;52.036;5.906;2022-07-10T04:00:55;15.40;96.40
42031;DHT22;27709;52.036;5.906;2022-07-10T04:03:34;15.40;96.40
42031;DHT22;27709;52.036;5.906;2022-07-10T04:06:02;15.40;96.40
42031;DHT22;27709;52.036;5.906;2022-07-10T04:08:29;15.50;96.50
42031;DHT22;27709;52.036;5.906;2022-07-10T04:10:56;15.50;96.50
42031;DHT22;27709;52.036;5.906;2022-07-10T04:13:21;15.50;96.50
42031;DHT22;27709;52.036;5.906;2022-07-10T04:15:47;15.60;96.40
42031;DHT22;27709;52.036;5.906;2022-07-10T04:18:13;15.60;96.40
42031;DHT22;27709;52.036;5.906;2022-07-10T04:20:39;15.60;96.40
42031;DHT22;27709;52.036;5.906;2022-07-10T04:23:07;15.70;96.40
42031;DHT22;27709;52.036;5.906;2022-07-10T04:25:32;15.70;96.30
42031;DHT22;27709;52.036;5.906;2022-07-10T04:28:01;15.70;96.30
42031;DHT22;27709;52.036;5.906;2022-07-10T04:30:26;15.80;96.30
42031;DHT22;27709;52.036;5.906;2022-07-10T04:32:52;15.80;96.50
42031;DHT22;27709;52.036;5.906;2022-07-10T04:35:18;15.80;96.20
42031;DHT22;27709;52.036;5.906;2022-07-10T04:37:43;15.80;96.20
42031;DHT22;27709;52.036;5.906;2022-07-10T04:40:10;15.90;96.10
42031;DHT22;27709;52.036;5.906;2022-07-10T04:42:36;15.90;96.00
42031;DHT22;27709;52.036;5.906;2022-07-10T04:45:01;15.90;96.00
42031;DHT22;27709;52.036;5.906;2022-07-10T04:47:27;15.90;96.10
42031;DHT22;27709;52.036;5.906;2022-07-10T04:49:54;15.90;96.00
42031;DHT22;27709;52.036;5.906;2022-07-10T04:52:19;15.90;96.10
42031;DHT22;27709;52.036;5.906;2022-07-10T04:54:45;15.90;96.10
42031;DHT22;27709;52.036;5.906;2022-07-10T04:57:12;16.00;96.10
42031;DHT22;27709;52.036;5.906;2022-07-10T04:59:37;16.00;96.10
42031;DHT22;27709;52.036;5.906;2022-07-10T05:02:03;16.00;96.10
42031;DHT22;27709;52.036;5.906;2022-07-10T05:04:29;16.10;96.10
42031;DHT22;27709;52.036;5.906;2022-07-10T05:06:55;16.20;96.00
42031;DHT22;27709;52.036;5.906;2022-07-10T05:09:21;16.20;96.00
42031;DHT22;27709;52.036;5.906;2022-07-10T05:11:46;16.20;95.80
42031;DHT22;27709;52.036;5.906;2022-07-10T05:14:12;16.30;95.80
42031;DHT22;27709;52.036;5.906;2022-07-10T05:16:38;16.30;95.80
42031;DHT22;27709;52.036;5.906;2022-07-10T05:19:03;16.30;95.70
42031;DHT22;27709;52.036;5.906;2022-07-10T05:21:29;16.40;95.70
42031;DHT22;27709;52.036;5.906;2022-07-10T05:23:55;16.50;95.60
42031;DHT22;27709;52.036;5.906;2022-07-10T05:26:20;16.50;95.50
42031;DHT22;27709;52.036;5.906;2022-07-10T05:28:46;16.60;95.40
42031;DHT22;27709;52.036;5.906;2022-07-10T05:31:11;16.60;95.30
42031;DHT22;27709;52.036;5.906;2022-07-10T05:33:37;16.60;95.30
42031;DHT22;27709;52.036;5.906;2022-07-10T05:36:06;16.60;95.30
42031;DHT22;27709;52.036;5.906;2022-07-10T05:38:32;16.70;95.10
42031;DHT22;27709;52.036;5.906;2022-07-10T05:40:57;16.80;95.20
42031;DHT22;27709;52.036;5.906;2022-07-10T05:43:26;16.80;95.00
42031;DHT22;27709;52.036;5.906;2022-07-10T05:45:52;16.80;94.90
42031;DHT22;27709;52.036;5.906;2022-07-10T05:48:17;16.80;95.00
42031;DHT22;27709;52.036;5.906;2022-07-10T05:50:44;16.80;95.00
42031;DHT22;27709;52.036;5.906;2022-07-10T05:53:10;16.80;95.10
42031;DHT22;27709;52.036;5.906;2022-07-10T05:55:35;16.90;95.10
42031;DHT22;27709;52.036;5.906;2022-07-10T05:58:01;16.90;95.10
42031;DHT22;27709;52.036;5.906;2022-07-10T06:00:27;16.90;95.10
42031;DHT22;27709;52.036;5.906;2022-07-10T06:02:52;16.90;95.10
42031;DHT22;27709;52.036;5.906;2022-07-10T06:05:18;16.90;95.10
42031;DHT22;27709;52.036;5.906;2022-07-10T06:07:43;17.00;95.10
42031;DHT22;27709;52.036;5.906;2022-07-10T06:10:09;16.90;95.10
42031;DHT22;27709;52.036;5.906;2022-07-10T06:12:35;17.00;95.20
42031;DHT22;27709;52.036;5.906;2022-07-10T06:15:03;17.00;95.30
42031;DHT22;27709;52.036;5.906;2022-07-10T06:17:28;17.00;95.50
42031;DHT22;27709;52.036;5.906;2022-07-10T06:19:54;17.00;95.70
42031;DHT22;27709;52.036;5.906;2022-07-10T06:22:19;17.00;95.80
42031;DHT22;27709;52.036;5.906;2022-07-10T06:25:03;17.00;95.90
42031;DHT22;27709;52.036;5.906;2022-07-10T06:27:29;17.00;96.10
42031;DHT22;27709;52.036;5.906;2022-07-10T06:29:55;16.90;96.20
42031;DHT22;27709;52.036;5.906;2022-07-10T06:32:20;16.80;96.30
42031;DHT22;27709;52.036;5.906;2022-07-10T06:34:46;16.80;96.60
42031;DHT22;27709;52.036;5.906;2022-07-10T06:37:12;16.80;97.00
42031;DHT22;27709;52.036;5.906;2022-07-10T06:39:38;16.70;96.80
42031;DHT22;27709;52.036;5.906;2022-07-10T06:42:04;16.70;97.00
42031;DHT22;27709;52.036;5.906;2022-07-10T06:44:30;16.60;97.30
42031;DHT22;27709;52.036;5.906;2022-07-10T06:46:57;16.70;97.70
42031;DHT22;27709;52.036;5.906;2022-07-10T06:49:42;16.70;97.60
42031;DHT22;27709;52.036;5.906;2022-07-10T06:52:08;16.70;97.80
42031;DHT22;27709;52.036;5.906;2022-07-10T06:54:33;16.70;97.90
42031;DHT22;27709;52.036;5.906;2022-07-10T06:56:59;16.80;97.90
42031;DHT22;27709;52.036;5.906;2022-07-10T06:59:25;16.80;98.00
42031;DHT22;27709;52.036;5.906;2022-07-10T07:01:50;16.80;98.20
42031;DHT22;27709;52.036;5.906;2022-07-10T07:04:16;16.90;98.20
42031;DHT22;27709;52.036;5.906;2022-07-10T07:06:41;16.90;98.30
42031;DHT22;27709;52.036;5.906;2022-07-10T07:09:07;16.90;98.40
42031;DHT22;27709;52.036;5.906;2022-07-10T07:11:32;16.90;98.30
42031;DHT22;27709;52.036;5.906;2022-07-10T07:13:58;17.00;98.40
42031;DHT22;27709;52.036;5.906;2022-07-10T07:16:24;17.00;98.40
42031;DHT22;27709;52.036;5.906;2022-07-10T07:19:03;17.00;98.40
42031;DHT22;27709;52.036;5.906;2022-07-10T07:21:30;17.10;98.40
42031;DHT22;27709;52.036;5.906;2022-07-10T07:24:14;17.10;98.50
42031;DHT22;27709;52.036;5.906;2022-07-10T07:26:40;17.10;98.60
42031;DHT22;27709;52.036;5.906;2022-07-10T07:29:06;17.20;98.70
42031;DHT22;27709;52.036;5.906;2022-07-10T07:31:32;17.20;98.70
42031;DHT22;27709;52.036;5.906;2022-07-10T07:33:58;17.20;98.80
42031;DHT22;27709;52.036;5.906;2022-07-10T07:36:23;17.20;98.80
42031;DHT22;27709;52.036;5.906;2022-07-10T07:38:49;17.20;98.80
42031;DHT22;27709;52.036;5.906;2022-07-10T07:41:14;17.20;98.90
42031;DHT22;27709;52.036;5.906;2022-07-10T07:43:40;17.30;99.00
42031;DHT22;27709;52.036;5.906;2022-07-10T07:46:06;17.40;99.00
42031;DHT22;27709;52.036;5.906;2022-07-10T07:48:32;17.50;98.90
42031;DHT22;27709;52.036;5.906;2022-07-10T07:50:57;17.60;98.90
42031;DHT22;27709;52.036;5.906;2022-07-10T07:53:23;17.60;98.80
42031;DHT22;27709;52.036;5.906;2022-07-10T07:55:49;17.60;98.70
42031;DHT22;27709;52.036;5.906;2022-07-10T07:58:14;17.60;98.60
42031;DHT22;27709;52.036;5.906;2022-07-10T08:00:40;17.60;98.60
42031;DHT22;27709;52.036;5.906;2022-07-10T08:03:05;17.60;98.60
42031;DHT22;27709;52.036;5.906;2022-07-10T08:05:31;17.60;98.90
42031;DHT22;27709;52.036;5.906;2022-07-10T08:07:59;17.50;98.60
42031;DHT22;27709;52.036;5.906;2022-07-10T08:10:30;17.50;98.70
42031;DHT22;27709;52.036;5.906;2022-07-10T08:12:56;17.60;99.00
42031;DHT22;27709;52.036;5.906;2022-07-10T08:15:22;17.70;99.20
42031;DHT22;27709;52.036;5.906;2022-07-10T08:17:49;17.80;99.20
42031;DHT22;27709;52.036;5.906;2022-07-10T08:20:15;17.90;99.00
42031;DHT22;27709;52.036;5.906;2022-07-10T08:22:41;17.90;98.90
42031;DHT22;27709;52.036;5.906;2022-07-10T08:25:08;18.00;98.90
42031;DHT22;27709;52.036;5.906;2022-07-10T08:27:34;17.90;98.80
42031;DHT22;27709;52.036;5.906;2022-07-10T08:30:00;18.00;98.80
42031;DHT22;27709;52.036;5.906;2022-07-10T08:32:26;18.00;98.70
42031;DHT22;27709;52.036;5.906;2022-07-10T08:34:53;18.00;98.70
42031;DHT22;27709;52.036;5.906;2022-07-10T08:37:18;18.00;98.70
42031;DHT22;27709;52.036;5.906;2022-07-10T08:39:45;18.00;98.70
42031;DHT22;27709;52.036;5.906;2022-07-10T08:42:11;18.10;98.80
42031;DHT22;27709;52.036;5.906;2022-07-10T08:44:37;18.10;98.70
42031;DHT22;27709;52.036;5.906;2022-07-10T08:47:03;18.10;98.80
42031;DHT22;27709;52.036;5.906;2022-07-10T08:49:31;18.10;98.70
42031;DHT22;27709;52.036;5.906;2022-07-10T08:52:08;18.20;98.80
42031;DHT22;27709;52.036;5.906;2022-07-10T08:54:37;18.40;98.60
42031;DHT22;27709;52.036;5.906;2022-07-10T08:57:04;18.50;98.60
42031;DHT22;27709;52.036;5.906;2022-07-10T08:59:31;18.70;98.50
42031;DHT22;27709;52.036;5.906;2022-07-10T09:01:56;19.20;98.50
42031;DHT22;27709;52.036;5.906;2022-07-10T09:04:24;19.60;97.40
42031;DHT22;27709;52.036;5.906;2022-07-10T09:06:51;19.80;96.80
42031;DHT22;27709;52.036;5.906;2022-07-10T09:09:17;20.00;96.40
42031;DHT22;27709;52.036;5.906;2022-07-10T09:11:43;20.00;96.10
42031;DHT22;27709;52.036;5.906;2022-07-10T09:14:16;20.00;96.00
42031;DHT22;27709;52.036;5.906;2022-07-10T09:16:44;20.10;95.80
42031;DHT22;27709;52.036;5.906;2022-07-10T09:19:21;20.20;95.40
42031;DHT22;27709;52.036;5.906;2022-07-10T09:21:49;20.30;95.20
42031;DHT22;27709;52.036;5.906;2022-07-10T09:24:15;20.20;95.00
42031;DHT22;27709;52.036;5.906;2022-07-10T09:29:52;20.20;94.50
42031;DHT22;27709;52.036;5.906;2022-07-10T09:32:21;20.10;94.50
42031;DHT22;27709;52.036;5.906;2022-07-10T09:34:49;20.10;94.40
42031;DHT22;27709;52.036;5.906;2022-07-10T09:37:28;20.00;94.50
42031;DHT22;27709;52.036;5.906;2022-07-10T09:42:25;19.90;94.50
42031;DHT22;27709;52.036;5.906;2022-07-10T09:44:51;19.90;94.60
42031;DHT22;27709;52.036;5.906;2022-07-10T09:47:22;20.00;94.30
42031;DHT22;27709;52.036;5.906;2022-07-10T09:49:48;20.20;94.80
42031;DHT22;27709;52.036;5.906;2022-07-10T09:52:14;20.60;94.30
42031;DHT22;27709;52.036;5.906;2022-07-10T09:54:40;21.00;93.80
42031;DHT22;27709;52.036;5.906;2022-07-10T09:57:07;21.20;93.60
42031;DHT22;27709;52.036;5.906;2022-07-10T09:59:36;21.20;93.20
42031;DHT22;27709;52.036;5.906;2022-07-10T10:02:03;21.00;93.10
42031;DHT22;27709;52.036;5.906;2022-07-10T10:04:30;20.80;92.70
42031;DHT22;27709;52.036;5.906;2022-07-10T10:07:01;20.60;92.70
42031;DHT22;27709;52.036;5.906;2022-07-10T10:09:40;20.60;93.10
42031;DHT22;27709;52.036;5.906;2022-07-10T10:12:16;20.70;93.30
42031;DHT22;27709;52.036;5.906;2022-07-10T10:14:42;20.90;93.00
42031;DHT22;27709;52.036;5.906;2022-07-10T10:17:08;21.10;92.60
42031;DHT22;27709;52.036;5.906;2022-07-10T10:19:36;21.30;91.90
42031;DHT22;27709;52.036;5.906;2022-07-10T10:22:22;21.50;91.40
42031;DHT22;27709;52.036;5.906;2022-07-10T10:24:49;21.60;90.90
42031;DHT22;27709;52.036;5.906;2022-07-10T10:27:15;21.60;90.90
42031;DHT22;27709;52.036;5.906;2022-07-10T10:29:41;21.60;90.80
42031;DHT22;27709;52.036;5.906;2022-07-10T10:32:07;21.50;90.70
42031;DHT22;27709;52.036;5.906;2022-07-10T10:34:45;21.50;90.80
42031;DHT22;27709;52.036;5.906;2022-07-10T10:37:40;21.70;90.70
42031;DHT22;27709;52.036;5.906;2022-07-10T10:40:30;22.00;90.00
42031;DHT22;27709;52.036;5.906;2022-07-10T10:42:58;22.10;90.00
42031;DHT22;27709;52.036;5.906;2022-07-10T10:50:53;21.40;89.60
42031;DHT22;27709;52.036;5.906;2022-07-10T10:53:23;21.20;89.40
42031;DHT22;27709;52.036;5.906;2022-07-10T10:58:38;21.20;89.60
42031;DHT22;27709;52.036;5.906;2022-07-10T11:01:27;21.20;90.00
42031;DHT22;27709;52.036;5.906;2022-07-10T11:09:25;20.90;90.20
42031;DHT22;27709;52.036;5.906;2022-07-10T11:12:08;21.00;90.30
42031;DHT22;27709;52.036;5.906;2022-07-10T11:14:36;21.30;90.40
42031;DHT22;27709;52.036;5.906;2022-07-10T11:17:03;21.70;90.50
42031;DHT22;27709;52.036;5.906;2022-07-10T11:19:30;22.00;89.20
42031;DHT22;27709;52.036;5.906;2022-07-10T11:27:42;22.60;87.10
42031;DHT22;27709;52.036;5.906;2022-07-10T11:30:15;22.70;86.70
42031;DHT22;27709;52.036;5.906;2022-07-10T11:32:40;22.60;86.20
42031;DHT22;27709;52.036;5.906;2022-07-10T11:35:12;22.50;86.70
42031;DHT22;27709;52.036;5.906;2022-07-10T11:37:53;22.50;86.20
42031;DHT22;27709;52.036;5.906;2022-07-10T11:40:20;22.50;87.00
42031;DHT22;27709;52.036;5.906;2022-07-10T11:42:52;22.50;87.40
42031;DHT22;27709;52.036;5.906;2022-07-10T11:45:29;22.40;86.90
42031;DHT22;27709;52.036;5.906;2022-07-10T11:47:55;22.20;87.20
42031;DHT22;27709;52.036;5.906;2022-07-10T11:50:22;22.00;87.00
42031;DHT22;27709;52.036;5.906;2022-07-10T11:52:48;21.80;87.50
42031;DHT22;27709;52.036;5.906;2022-07-10T11:55:18;21.70;87.80
42031;DHT22;27709;52.036;5.906;2022-07-10T11:57:45;21.80;87.80
42031;DHT22;27709;52.036;5.906;2022-07-10T12:00:40;21.90;87.90
42031;DHT22;27709;52.036;5.906;2022-07-10T12:03:20;22.00;88.10
42031;DHT22;27709;52.036;5.906;2022-07-10T12:05:46;22.00;88.40
42031;DHT22;27709;52.036;5.906;2022-07-10T12:08:12;21.90;88.90
42031;DHT22;27709;52.036;5.906;2022-07-10T12:10:39;21.90;88.70
42031;DHT22;27709;52.036;5.906;2022-07-10T12:13:10;22.00;88.90
42031;DHT22;27709;52.036;5.906;2022-07-10T12:15:46;22.20;87.80
42031;DHT22;27709;52.036;5.906;2022-07-10T12:18:22;22.20;87.10
42031;DHT22;27709;52.036;5.906;2022-07-10T12:20:49;22.00;87.00
42031;DHT22;27709;52.036;5.906;2022-07-10T12:23:16;21.80;86.80
42031;DHT22;27709;52.036;5.906;2022-07-10T12:25:47;21.60;87.30
42031;DHT22;27709;52.036;5.906;2022-07-10T12:28:15;21.70;88.00
42031;DHT22;27709;52.036;5.906;2022-07-10T12:30:45;21.70;88.00
42031;DHT22;27709;52.036;5.906;2022-07-10T12:33:21;21.90;88.20
42031;DHT22;27709;52.036;5.906;2022-07-10T12:38:18;22.10;87.30
42031;DHT22;27709;52.036;5.906;2022-07-10T12:40:43;22.20;86.80
42031;DHT22;27709;52.036;5.906;2022-07-10T12:43:09;22.40;86.30
42031;DHT22;27709;52.036;5.906;2022-07-10T12:45:37;22.60;85.70
42031;DHT22;27709;52.036;5.906;2022-07-10T12:48:04;22.70;84.90
42031;DHT22;27709;52.036;5.906;2022-07-10T12:50:31;22.90;84.80
42031;DHT22;27709;52.036;5.906;2022-07-10T12:53:08;23.20;84.60
42031;DHT22;27709;52.036;5.906;2022-07-10T12:55:38;23.40;84.50
42031;DHT22;27709;52.036;5.906;2022-07-10T12:58:05;23.70;82.40
42031;DHT22;27709;52.036;5.906;2022-07-10T13:00:36;23.90;82.00
42031;DHT22;27709;52.036;5.906;2022-07-10T13:03:04;24.00;81.90
42031;DHT22;27709;52.036;5.906;2022-07-10T13:05:38;24.10;81.10
42031;DHT22;27709;52.036;5.906;2022-07-10T13:10:34;23.90;80.90
42031;DHT22;27709;52.036;5.906;2022-07-10T13:13:02;23.70;81.40
42031;DHT22;27709;52.036;5.906;2022-07-10T13:15:27;23.50;81.10
42031;DHT22;27709;52.036;5.906;2022-07-10T13:17:55;23.40;82.10
42031;DHT22;27709;52.036;5.906;2022-07-10T13:20:20;23.30;81.60
42031;DHT22;27709;52.036;5.906;2022-07-10T13:22:46;23.40;81.30
42031;DHT22;27709;52.036;5.906;2022-07-10T13:25:11;23.30;81.70
42031;DHT22;27709;52.036;5.906;2022-07-10T13:27:37;23.40;81.70
42031;DHT22;27709;52.036;5.906;2022-07-10T13:30:03;23.40;80.80
42031;DHT22;27709;52.036;5.906;2022-07-10T13:32:29;23.50;80.40
42031;DHT22;27709;52.036;5.906;2022-07-10T13:34:55;23.80;80.20
42031;DHT22;27709;52.036;5.906;2022-07-10T13:37:20;24.00;78.90
42031;DHT22;27709;52.036;5.906;2022-07-10T13:39:46;24.10;78.90
42031;DHT22;27709;52.036;5.906;2022-07-10T13:42:11;24.30;79.10
42031;DHT22;27709;52.036;5.906;2022-07-10T13:44:37;24.40;78.20
42031;DHT22;27709;52.036;5.906;2022-07-10T13:47:03;24.40;76.60
42031;DHT22;27709;52.036;5.906;2022-07-10T13:49:29;24.50;76.90
42031;DHT22;27709;52.036;5.906;2022-07-10T13:51:55;24.50;75.90
42031;DHT22;27709;52.036;5.906;2022-07-10T13:54:21;24.50;76.10
42031;DHT22;27709;52.036;5.906;2022-07-10T13:56:47;24.20;75.90
42031;DHT22;27709;52.036;5.906;2022-07-10T13:59:13;24.20;76.60
42031;DHT22;27709;52.036;5.906;2022-07-10T14:01:38;24.30;76.10
42031;DHT22;27709;52.036;5.906;2022-07-10T14:04:04;24.50;75.00
42031;DHT22;27709;52.036;5.906;2022-07-10T14:06:29;24.50;74.30
42031;DHT22;27709;52.036;5.906;2022-07-10T14:08:55;24.50;74.60
42031;DHT22;27709;52.036;5.906;2022-07-10T14:11:21;24.50;74.20
42031;DHT22;27709;52.036;5.906;2022-07-10T14:13:47;24.40;74.00
42031;DHT22;27709;52.036;5.906;2022-07-10T14:16:13;24.20;74.50
42031;DHT22;27709;52.036;5.906;2022-07-10T14:18:38;24.10;74.70
42031;DHT22;27709;52.036;5.906;2022-07-10T14:21:06;24.10;75.50
42031;DHT22;27709;52.036;5.906;2022-07-10T14:23:35;24.20;75.20
42031;DHT22;27709;52.036;5.906;2022-07-10T14:26:01;24.40;75.10
42031;DHT22;27709;52.036;5.906;2022-07-10T14:28:27;24.60;74.80
42031;DHT22;27709;52.036;5.906;2022-07-10T14:30:53;24.60;74.50
42031;DHT22;27709;52.036;5.906;2022-07-10T14:33:20;24.50;73.80
42031;DHT22;27709;52.036;5.906;2022-07-10T14:35:46;24.40;74.00
42031;DHT22;27709;52.036;5.906;2022-07-10T14:38:11;24.20;74.00
42031;DHT22;27709;52.036;5.906;2022-07-10T14:40:37;24.10;75.00
42031;DHT22;27709;52.036;5.906;2022-07-10T14:43:02;24.10;75.60
42031;DHT22;27709;52.036;5.906;2022-07-10T14:45:28;24.00;75.10
42031;DHT22;27709;52.036;5.906;2022-07-10T14:47:53;24.00;75.70
42031;DHT22;27709;52.036;5.906;2022-07-10T14:50:20;24.00;76.00
42031;DHT22;27709;52.036;5.906;2022-07-10T14:52:46;24.00;75.90
42031;DHT22;27709;52.036;5.906;2022-07-10T14:55:12;24.20;75.80
42031;DHT22;27709;52.036;5.906;2022-07-10T14:57:37;24.30;75.00
42031;DHT22;27709;52.036;5.906;2022-07-10T15:00:04;24.30;75.10
42031;DHT22;27709;52.036;5.906;2022-07-10T15:02:30;24.40;75.30
42031;DHT22;27709;52.036;5.906;2022-07-10T15:04:55;24.60;74.60
42031;DHT22;27709;52.036;5.906;2022-07-10T15:07:21;24.50;74.50
42031;DHT22;27709;52.036;5.906;2022-07-10T15:09:46;24.20;74.80
42031;DHT22;27709;52.036;5.906;2022-07-10T15:12:12;24.20;75.80
42031;DHT22;27709;52.036;5.906;2022-07-10T15:14:41;24.20;75.30
42031;DHT22;27709;52.036;5.906;2022-07-10T15:17:06;24.10;75.10
42031;DHT22;27709;52.036;5.906;2022-07-10T15:19:32;24.10;75.00
42031;DHT22;27709;52.036;5.906;2022-07-10T15:21:57;24.10;74.60
42031;DHT22;27709;52.036;5.906;2022-07-10T15:24:24;24.20;75.40
42031;DHT22;27709;52.036;5.906;2022-07-10T15:26:49;24.20;74.90
42031;DHT22;27709;52.036;5.906;2022-07-10T15:29:16;24.20;74.90
42031;DHT22;27709;52.036;5.906;2022-07-10T15:31:42;24.20;74.80
42031;DHT22;27709;52.036;5.906;2022-07-10T15:34:10;24.30;74.80
42031;DHT22;27709;52.036;5.906;2022-07-10T15:36:37;24.30;75.00
42031;DHT22;27709;52.036;5.906;2022-07-10T15:39:03;24.20;75.10
42031;DHT22;27709;52.036;5.906;2022-07-10T15:41:28;24.10;75.40
42031;DHT22;27709;52.036;5.906;2022-07-10T15:43:55;24.10;75.90
42031;DHT22;27709;52.036;5.906;2022-07-10T15:46:20;24.10;76.10
42031;DHT22;27709;52.036;5.906;2022-07-10T15:48:46;24.10;76.20
42031;DHT22;27709;52.036;5.906;2022-07-10T15:51:11;24.10;76.50
42031;DHT22;27709;52.036;5.906;2022-07-10T15:53:39;24.00;76.50
42031;DHT22;27709;52.036;5.906;2022-07-10T15:56:05;24.00;76.60
42031;DHT22;27709;52.036;5.906;2022-07-10T15:58:31;24.10;76.60
42031;DHT22;27709;52.036;5.906;2022-07-10T16:00:56;24.00;76.60
42031;DHT22;27709;52.036;5.906;2022-07-10T16:03:22;24.00;76.90
42031;DHT22;27709;52.036;5.906;2022-07-10T16:05:47;24.00;76.50
42031;DHT22;27709;52.036;5.906;2022-07-10T16:08:13;23.90;77.10
42031;DHT22;27709;52.036;5.906;2022-07-10T16:10:39;24.00;77.20
42031;DHT22;27709;52.036;5.906;2022-07-10T16:13:05;23.90;77.50
42031;DHT22;27709;52.036;5.906;2022-07-10T16:15:31;24.00;78.00
42031;DHT22;27709;52.036;5.906;2022-07-10T16:17:56;23.90;77.50
42031;DHT22;27709;52.036;5.906;2022-07-10T16:20:22;23.90;77.90